Time;durP1;ratioP1;P1;durP2;ratioP2;P2;SDS_P1;SDS_P2;PMS_P1;PMS_P2;Temp;Humidity;BMP_temperature;BMP_pressure;BME280_temperature;BME280_humidity;BME280_pressure;Samples;Min_cycle;Max_cycle;Signal;HPM_P1;HPM_P2
2023/05/07 00:01:28;;;;;;;20.73;9.02;;;;;;;13.28;100.00;101463.88;5083110;28;20070;-68
2023/05/07 00:03:53;;;;;;;18.15;8.45;;;;;;;13.28;100.00;101461.22;5082965;28;20077;-67
2023/05/07 00:06:19;;;;;;;18.75;8.52;;;;;;;13.26;100.00;101466.53;5084186;28;20074;-69
2023/05/07 00:08:44;;;;;;;18.85;8.70;;;;;;;13.29;100.00;101468.31;5081673;28;20021;-67
2023/05/07 00:11:10;;;;;;;18.42;8.95;;;;;;;13.25;100.00;101463.00;5077314;28;20031;-67
2023/05/07 00:13:35;;;;;;;19.67;9.40;;;;;;;13.25;100.00;101460.34;5083426;28;20028;-69
2023/05/07 00:16:02;;;;;;;19.33;9.10;;;;;;;13.23;100.00;101456.78;5082633;28;20026;-66
2023/05/07 00:18:27;;;;;;;19.92;9.27;;;;;;;13.29;100.00;101461.22;5083147;28;20436;-67
2023/05/07 00:20:53;;;;;;;20.45;9.43;;;;;;;13.27;100.00;101459.47;5083479;28;20125;-72
2023/05/07 00:23:18;;;;;;;19.73;9.50;;;;;;;13.27;100.00;101462.13;5082020;28;20107;-69
2023/05/07 00:25:43;;;;;;;19.75;9.10;;;;;;;13.24;100.00;101447.94;5084602;28;20494;-69
2023/05/07 00:28:09;;;;;;;19.60;9.02;;;;;;;13.22;100.00;101447.06;5081438;28;20479;-67
2023/05/07 00:30:34;;;;;;;19.05;8.77;;;;;;;13.25;100.00;101454.13;5083764;28;20394;-70
2023/05/07 00:33:00;;;;;;;19.70;9.45;;;;;;;13.23;100.00;101447.94;5082209;28;20051;-74
2023/05/07 00:35:25;;;;;;;19.08;9.65;;;;;;;13.27;100.00;101451.50;5082659;28;20059;-74
2023/05/07 00:37:50;;;;;;;21.45;10.60;;;;;;;13.26;100.00;101450.59;5083599;28;20074;-74
2023/05/07 00:40:16;;;;;;;21.65;10.15;;;;;;;13.30;100.00;101451.53;5081041;28;20459;-72
2023/05/07 00:42:41;;;;;;;20.10;10.07;;;;;;;13.29;100.00;101449.75;5084651;28;20036;-74
2023/05/07 00:45:08;;;;;;;21.38;11.23;;;;;;;13.29;100.00;101440.00;5081331;28;20108;-71
2023/05/07 00:47:34;;;;;;;20.83;10.52;;;;;;;13.29;100.00;101440.00;5065810;28;20055;-71
2023/05/07 00:50:00;;;;;;;20.15;10.30;;;;;;;13.32;100.00;101433.81;5082445;28;20526;-73
2023/05/07 00:52:26;;;;;;;21.00;11.00;;;;;;;13.25;100.00;101432.91;5082238;28;20112;-69
2023/05/07 00:54:52;;;;;;;21.02;10.88;;;;;;;13.22;100.00;101431.16;5083439;28;20124;-71
2023/05/07 00:57:17;;;;;;;21.30;11.20;;;;;;;13.24;100.00;101436.47;5081241;28;20033;-73
2023/05/07 00:59:43;;;;;;;21.27;11.73;;;;;;;13.22;100.00;101436.44;5084242;28;20458;-74
2023/05/07 01:02:08;;;;;;;21.58;11.63;;;;;;;13.18;100.00;101434.66;5081194;28;20486;-72
2023/05/07 01:04:34;;;;;;;21.60;12.20;;;;;;;13.20;100.00;101432.00;5083513;28;20100;-74
2023/05/07 01:07:01;;;;;;;22.27;12.13;;;;;;;13.20;100.00;101440.84;5082285;28;20028;-72
2023/05/07 01:09:27;;;;;;;22.30;12.73;;;;;;;13.24;100.00;101441.75;5064337;28;20024;-71
2023/05/07 01:11:55;;;;;;;21.98;12.88;;;;;;;13.25;100.00;101432.91;5083075;28;20039;-70
2023/05/07 01:14:20;;;;;;;22.70;12.73;;;;;;;13.30;100.00;101438.25;5081270;28;20032;-74
2023/05/07 01:16:47;;;;;;;21.90;12.75;;;;;;;13.31;100.00;101438.25;5084172;28;20028;-74
2023/05/07 01:19:16;;;;;;;22.48;12.88;;;;;;;13.34;100.00;101432.03;5080640;28;20111;-74
2023/05/07 01:21:46;;;;;;;21.85;12.85;;;;;;;13.31;100.00;101427.63;5076445;28;20039;-74
2023/05/07 01:24:11;;;;;;;23.33;12.90;;;;;;;13.25;100.00;101425.84;5076587;28;20471;-74
2023/05/07 01:26:37;;;;;;;22.60;13.45;;;;;;;13.25;100.00;101419.63;5080338;28;20040;-74
2023/05/07 01:29:03;;;;;;;22.83;12.95;;;;;;;13.20;100.00;101409.00;5082199;28;20665;-74
2023/05/07 01:31:29;;;;;;;22.27;13.63;;;;;;;13.20;100.00;101416.97;5065900;28;20033;-74
2023/05/07 01:33:56;;;;;;;23.45;13.73;;;;;;;13.20;100.00;101403.69;5080424;28;20049;-74
2023/05/07 01:36:25;;;;;;;23.45;13.77;;;;;;;13.18;100.00;101405.47;5086481;28;20086;-74
2023/05/07 01:38:52;;;;;;;22.80;13.27;;;;;;;13.15;100.00;101402.81;5087773;28;20036;-74
2023/05/07 01:41:18;;;;;;;22.75;13.68;;;;;;;13.14;100.00;101402.81;5084888;28;20088;-74
2023/05/07 01:43:44;;;;;;;22.58;13.00;;;;;;;13.16;100.00;101406.34;5086796;28;20043;-75
2023/05/07 01:46:11;;;;;;;22.40;13.00;;;;;;;13.09;100.00;101408.06;5085644;28;20051;-74
2023/05/07 01:48:37;;;;;;;22.33;12.60;;;;;;;13.07;100.00;101405.41;5085522;28;20525;-74
2023/05/07 01:51:04;;;;;;;22.05;13.20;;;;;;;13.07;100.00;101399.22;5086539;28;20546;-73
2023/05/07 01:53:35;;;;;;;22.10;13.27;;;;;;;13.10;100.00;101411.63;5084461;28;20392;-72
2023/05/07 01:56:01;;;;;;;23.93;14.67;;;;;;;13.11;100.00;101405.47;5087185;28;20036;-69
2023/05/07 01:58:26;;;;;;;23.65;14.65;;;;;;;13.10;100.00;101401.91;5083932;28;20384;-71
2023/05/07 02:00:51;;;;;;;23.42;14.40;;;;;;;13.06;100.00;101401.00;5087185;28;20129;-72
2023/05/07 02:03:17;;;;;;;23.58;14.00;;;;;;;13.03;100.00;101400.09;5084541;28;20102;-69
2023/05/07 02:05:42;;;;;;;22.92;14.25;;;;;;;13.02;100.00;101398.34;5086164;28;20115;-74
2023/05/07 02:08:07;;;;;;;24.92;15.20;;;;;;;12.96;100.00;101398.31;5086064;28;20025;-72
2023/05/07 02:10:33;;;;;;;24.27;15.57;;;;;;;12.91;100.00;101400.94;5066758;28;20034;-66
2023/05/07 02:13:01;;;;;;;25.42;16.25;;;;;;;12.90;100.00;101399.16;5086847;28;20032;-68
2023/05/07 02:15:26;;;;;;;24.58;15.98;;;;;;;12.84;100.00;101399.16;5083846;28;20032;-72
2023/05/07 02:18:00;;;;;;;24.50;15.88;;;;;;;12.87;100.00;101400.06;5079479;28;20026;-72
2023/05/07 02:20:25;;;;;;;23.92;15.60;;;;;;;12.88;100.00;101393.84;5079715;28;20029;-73
2023/05/07 02:22:51;;;;;;;23.77;15.32;;;;;;;12.88;100.00;101409.78;5087001;28;20031;-69
2023/05/07 02:25:16;;;;;;;24.05;15.80;;;;;;;12.86;100.00;101408.91;5066382;28;20391;-72
2023/05/07 02:27:41;;;;;;;24.10;15.40;;;;;;;12.87;100.00;101416.00;5085347;28;20368;-72
2023/05/07 02:30:07;;;;;;;24.15;15.35;;;;;;;12.89;100.00;101411.56;5085608;28;20121;-72
2023/05/07 02:32:32;;;;;;;24.67;16.10;;;;;;;12.84;100.00;101408.03;5084287;28;20052;-69
2023/05/07 02:34:58;;;;;;;24.30;15.63;;;;;;;12.85;100.00;101414.19;5086581;28;20731;-68
2023/05/07 02:37:23;;;;;;;24.45;15.63;;;;;;;12.87;100.00;101420.38;5064271;28;20033;-71
2023/05/07 02:39:48;;;;;;;24.73;16.52;;;;;;;12.85;100.00;101415.06;5086197;28;20020;-71
2023/05/07 02:42:14;;;;;;;25.83;17.35;;;;;;;12.86;100.00;101402.72;5084416;28;20028;-69
2023/05/07 02:44:39;;;;;;;25.77;18.13;;;;;;;12.86;100.00;101408.91;5085241;28;20028;-68
2023/05/07 02:47:08;;;;;;;26.27;18.33;;;;;;;12.83;100.00;101403.59;5085313;28;20036;-69
2023/05/07 02:49:33;;;;;;;26.38;18.80;;;;;;;12.80;100.00;101406.22;5083787;28;20056;-70
2023/05/07 02:51:59;;;;;;;26.98;18.25;;;;;;;12.82;100.00;101408.88;5086323;28;20107;-72
2023/05/07 02:54:24;;;;;;;25.02;17.98;;;;;;;12.81;100.00;101410.63;5082861;28;20028;-71
2023/05/07 02:56:50;;;;;;;26.10;17.50;;;;;;;12.78;100.00;101415.94;5085892;28;20471;-68
2023/05/07 02:59:15;;;;;;;25.48;18.08;;;;;;;12.78;100.00;101421.25;5083822;28;20046;-69
2023/05/07 03:01:43;;;;;;;25.40;18.13;;;;;;;12.77;100.00;101413.28;5084721;28;20048;-72
2023/05/07 03:04:10;;;;;;;24.77;17.58;;;;;;;12.76;100.00;101412.41;5084791;28;20043;-68
2023/05/07 03:06:35;;;;;;;24.65;17.30;;;;;;;12.77;100.00;101411.53;5084154;28;20067;-68
2023/05/07 03:09:01;;;;;;;24.85;17.45;;;;;;;12.77;100.00;101407.97;5085530;28;20036;-68
2023/05/07 03:11:26;;;;;;;24.80;17.67;;;;;;;12.79;100.00;101409.75;5082387;28;20447;-67
2023/05/07 03:13:52;;;;;;;25.92;18.42;;;;;;;12.78;100.00;101407.97;5086110;28;20024;-68
2023/05/07 03:16:17;;;;;;;26.00;18.40;;;;;;;12.78;100.00;101399.13;5083040;28;20499;-67
2023/05/07 03:18:42;;;;;;;26.40;18.33;;;;;;;12.80;100.00;101406.22;5084703;28;20033;-68
2023/05/07 03:21:08;;;;;;;26.83;18.98;;;;;;;12.77;100.00;101407.97;5084430;28;20046;-70
2023/05/07 03:23:33;;;;;;;26.48;18.40;;;;;;;12.80;100.00;101410.63;5065167;28;20123;-69
2023/05/07 03:25:59;;;;;;;29.73;21.35;;;;;;;12.80;100.00;101406.22;5085641;28;20166;-69
2023/05/07 03:28:24;;;;;;;26.90;19.80;;;;;;;12.80;100.00;101407.97;5044190;28;20025;-67
2023/05/07 03:30:50;;;;;;;29.10;22.45;;;;;;;12.77;100.00;101400.91;5084712;28;20380;-68
2023/05/07 03:33:15;;;;;;;26.85;19.80;;;;;;;12.76;100.00;101395.59;5083017;28;20044;-70
2023/05/07 03:35:41;;;;;;;28.33;21.35;;;;;;;12.77;100.00;101395.63;5083831;28;20115;-67
2023/05/07 03:38:07;;;;;;;29.25;22.77;;;;;;;12.76;100.00;101393.84;5084196;28;20524;-70
2023/05/07 03:40:32;;;;;;;29.30;23.02;;;;;;;12.76;100.00;101399.13;5082627;28;20422;-68
2023/05/07 03:42:57;;;;;;;28.40;21.92;;;;;;;12.76;100.00;101401.78;5085545;28;20071;-68
2023/05/07 03:45:23;;;;;;;28.60;21.85;;;;;;;12.73;100.00;101393.81;5077897;28;20028;-68
2023/05/07 03:47:48;;;;;;;29.55;21.95;;;;;;;12.72;100.00;101397.34;5084551;28;20367;-68
2023/05/07 03:50:13;;;;;;;29.75;23.40;;;;;;;12.73;100.00;101392.03;5082993;28;20028;-68
2023/05/07 03:52:39;;;;;;;31.30;24.35;;;;;;;12.74;100.00;101392.91;5083196;28;20087;-71
2023/05/07 03:55:06;;;;;;;30.33;23.02;;;;;;;12.73;100.00;101396.47;5084590;28;20107;-69
2023/05/07 03:57:31;;;;;;;31.40;24.35;;;;;;;12.71;100.00;101395.56;5082075;28;20029;-67
2023/05/07 03:59:56;;;;;;;30.17;23.77;;;;;;;12.69;100.00;101405.28;5085207;28;20059;-68
2023/05/07 04:02:22;;;;;;;29.20;23.55;;;;;;;12.68;100.00;101409.72;5081852;28;20035;-70
2023/05/07 04:04:49;;;;;;;30.80;23.65;;;;;;;12.69;100.00;101418.56;5084164;28;20020;-69
2023/05/07 04:07:14;;;;;;;31.00;23.77;;;;;;;12.66;100.00;101413.25;5082797;28;20036;-68
2023/05/07 04:09:40;;;;;;;29.30;23.05;;;;;;;12.64;100.00;101423.84;5083299;28;20060;-68
2023/05/07 04:12:05;;;;;;;30.48;24.25;;;;;;;12.66;100.00;101421.19;5083896;28;20024;-68
2023/05/07 04:14:32;;;;;;;30.70;24.00;;;;;;;12.73;100.00;101429.19;5081903;28;20535;-69
2023/05/07 04:16:58;;;;;;;29.92;24.20;;;;;;;12.72;100.00;101432.69;5066960;28;20114;-68
2023/05/07 04:19:23;;;;;;;31.13;24.17;;;;;;;12.76;100.00;101428.31;5077207;28;20025;-68
2023/05/07 04:21:49;;;;;;;32.53;25.73;;;;;;;12.78;100.00;101423.88;5084215;28;20039;-70
2023/05/07 04:24:14;;;;;;;34.42;26.55;;;;;;;12.76;100.00;101428.31;5082374;28;20028;-69
2023/05/07 04:26:40;;;;;;;30.20;24.80;;;;;;;12.79;100.00;101424.78;5082822;28;20167;-68
2023/05/07 04:29:05;;;;;;;31.63;25.45;;;;;;;12.78;100.00;101425.66;5084112;28;20153;-68
2023/05/07 04:31:31;;;;;;;31.60;25.63;;;;;;;12.80;100.00;101426.53;5081663;28;20085;-67
2023/05/07 04:33:57;;;;;;;32.40;26.55;;;;;;;12.80;100.00;101427.47;5084406;28;20109;-71
2023/05/07 04:36:22;;;;;;;30.80;26.10;;;;;;;12.82;100.00;101433.66;5081440;28;20467;-74
2023/05/07 04:38:47;;;;;;;32.00;26.50;;;;;;;12.86;100.00;101430.13;5083557;28;20497;-72
2023/05/07 04:41:13;;;;;;;30.20;25.42;;;;;;;12.85;100.00;101430.13;5082592;28;20165;-74
2023/05/07 04:43:38;;;;;;;31.15;25.83;;;;;;;12.90;100.00;101429.25;5064564;28;20036;-74
2023/05/07 04:46:04;;;;;;;31.02;26.15;;;;;;;12.93;100.00;101438.09;5083604;28;20032;-74
2023/05/07 04:48:30;;;;;;;32.67;26.38;;;;;;;12.95;100.00;101428.41;5081207;28;20077;-71
2023/05/07 04:50:55;;;;;;;33.80;27.13;;;;;;;12.96;100.00;101430.16;5084252;28;20039;-70
2023/05/07 04:53:21;;;;;;;32.65;26.83;;;;;;;12.98;100.00;101431.94;5063088;28;20166;-72
2023/05/07 04:55:47;;;;;;;33.55;27.40;;;;;;;13.01;100.00;101439.03;5083512;28;20021;-70
2023/05/07 04:58:12;;;;;;;31.80;26.70;;;;;;;13.05;100.00;101440.81;5082267;28;20030;-74
2023/05/07 05:00:39;;;;;;;32.28;27.15;;;;;;;13.08;100.00;101443.47;5084401;28;20399;-73
2023/05/07 05:03:05;;;;;;;31.75;26.65;;;;;;;13.15;100.00;101442.63;5088090;28;20102;-73
2023/05/07 05:05:30;;;;;;;31.83;27.35;;;;;;;13.16;100.00;101441.72;5067517;28;20029;-73
2023/05/07 05:07:56;;;;;;;31.75;26.17;;;;;;;13.25;100.00;101443.50;5088377;28;20024;-72
2023/05/07 05:10:22;;;;;;;32.22;27.52;;;;;;;13.29;100.00;101447.97;5085283;28;20116;-72
2023/05/07 05:12:47;;;;;;;32.13;27.17;;;;;;;13.39;100.00;101440.94;5087298;28;20021;-68
2023/05/07 05:15:12;;;;;;;32.50;27.00;;;;;;;13.46;100.00;101441.84;5086179;28;20054;-72
2023/05/07 05:17:38;;;;;;;31.67;26.80;;;;;;;13.57;100.00;101440.97;5085959;28;20025;-70
2023/05/07 05:20:05;;;;;;;32.00;26.70;;;;;;;13.65;100.00;101443.63;5087402;28;20470;-66
2023/05/07 05:22:31;;;;;;;31.70;25.67;;;;;;;13.77;100.00;101445.41;5066672;28;20368;-71
2023/05/07 05:24:57;;;;;;;31.50;26.50;;;;;;;13.88;100.00;101440.13;5053540;28;20074;-71
2023/05/07 05:27:22;;;;;;;30.73;26.40;;;;;;;13.93;100.00;101448.97;5084645;28;20029;-71
2023/05/07 05:29:48;;;;;;;31.55;26.13;;;;;;;14.02;100.00;101448.09;5087248;28;20108;-72
2023/05/07 05:32:13;;;;;;;33.10;26.23;;;;;;;14.03;100.00;101450.75;5086075;28;20039;-71
2023/05/07 05:34:39;;;;;;;31.83;26.67;;;;;;;14.09;100.00;101452.50;5085662;28;20433;-73
2023/05/07 05:37:04;;;;;;;31.30;26.08;;;;;;;14.12;100.00;101452.50;5087194;28;20039;-72
2023/05/07 05:39:29;;;;;;;30.77;26.40;;;;;;;14.12;100.00;101452.50;5084312;28;20024;-71
2023/05/07 05:41:55;;;;;;;30.40;25.63;;;;;;;14.16;100.00;101461.38;5087918;28;20028;-70
2023/05/07 05:44:20;;;;;;;31.48;26.10;;;;;;;14.21;100.00;101460.50;5085011;28;20503;-67
2023/05/07 05:46:46;;;;;;;31.30;26.33;;;;;;;14.28;100.00;101458.69;5086397;28;20025;-70
2023/05/07 05:49:11;;;;;;;30.92;26.10;;;;;;;14.27;100.00;101459.56;5086089;28;20032;-73
2023/05/07 05:51:36;;;;;;;31.00;25.80;;;;;;;14.30;100.00;101468.44;5085182;28;20460;-68
2023/05/07 05:54:02;;;;;;;30.38;26.25;;;;;;;14.32;100.00;101467.56;5087042;28;20374;-69
2023/05/07 05:56:27;;;;;;;32.13;26.65;;;;;;;14.38;100.00;101464.91;5083966;28;20438;-71
2023/05/07 05:58:53;;;;;;;31.52;26.35;;;;;;;14.45;100.00;101464.88;5087393;28;20024;-70
2023/05/07 06:01:18;;;;;;;30.40;26.35;;;;;;;14.49;100.00;101463.13;5084431;28;20096;-69
2023/05/07 06:03:44;;;;;;;30.63;25.90;;;;;;;14.57;100.00;101461.31;5086173;28;20049;-72
2023/05/07 06:06:09;;;;;;;31.17;26.10;;;;;;;14.65;100.00;101458.69;5085963;28;20028;-72
2023/05/07 06:08:35;;;;;;;32.17;26.42;;;;;;;14.68;100.00;101465.75;5084473;28;20483;-72
2023/05/07 06:11:01;;;;;;;31.90;26.70;;;;;;;14.72;100.00;101465.75;5087471;28;20378;-68
2023/05/07 06:13:27;;;;;;;30.27;26.77;;;;;;;14.77;100.00;101465.72;5083573;28;20033;-69
2023/05/07 06:15:52;;;;;;;30.00;26.60;;;;;;;14.86;100.00;101470.13;5086582;28;20039;-71
2023/05/07 06:18:17;;;;;;;32.05;26.42;;;;;;;14.90;100.00;101462.13;5085001;28;20036;-74
2023/05/07 06:20:43;;;;;;;31.05;25.45;;;;;;;14.96;100.00;101469.22;5085433;28;20586;-71
2023/05/07 06:23:08;;;;;;;31.05;26.13;;;;;;;15.01;100.00;101459.41;5085997;28;20394;-70
2023/05/07 06:25:33;;;;;;;31.67;25.92;;;;;;;15.09;100.00;101462.06;5066307;28;20114;-71
2023/05/07 06:27:59;;;;;;;30.70;25.85;;;;;;;15.23;100.00;101457.56;5086979;28;20028;-71
2023/05/07 06:30:24;;;;;;;30.65;25.88;;;;;;;15.36;100.00;101461.00;5083389;28;20025;-73
2023/05/07 06:32:49;;;;;;;30.10;24.48;;;;;;;15.49;100.00;101456.50;5085990;28;20491;-71
2023/05/07 06:35:15;;;;;;;29.25;24.73;;;;;;;15.54;100.00;101457.38;5066586;28;20044;-70
2023/05/07 06:37:42;;;;;;;30.65;24.75;;;;;;;15.62;100.00;101460.84;5084539;28;20035;-69
2023/05/07 06:40:08;;;;;;;29.27;24.05;;;;;;;15.65;100.00;101462.63;5085596;28;20119;-72
2023/05/07 06:42:33;;;;;;;30.80;25.02;;;;;;;15.64;100.00;101461.75;5083527;28;20406;-72
2023/05/07 06:44:59;;;;;;;30.85;24.80;;;;;;;15.66;100.00;101464.38;5086620;28;20024;-73
2023/05/07 06:47:24;;;;;;;29.73;24.45;;;;;;;15.71;100.00;101464.34;5083211;28;20043;-70
2023/05/07 06:49:50;;;;;;;30.30;24.35;;;;;;;15.75;100.00;101474.97;5085695;28;20119;-73
2023/05/07 06:52:15;;;;;;;28.67;23.35;;;;;;;15.74;100.00;101477.66;5084355;28;20394;-68
2023/05/07 06:54:41;;;;;;;29.70;23.63;;;;;;;15.67;100.00;101472.38;5084357;28;20079;-75
2023/05/07 06:57:07;;;;;;;29.23;23.75;;;;;;;15.56;100.00;101474.22;5085345;28;20020;-72
2023/05/07 06:59:32;;;;;;;29.50;24.17;;;;;;;15.40;100.00;101477.88;5083130;28;20036;-70
2023/05/07 07:01:57;;;;;;;28.58;23.15;;;;;;;15.34;100.00;101486.78;5086079;28;20039;-74
2023/05/07 07:04:24;;;;;;;29.02;23.65;;;;;;;15.37;100.00;101488.56;5082940;28;20029;-74
2023/05/07 07:06:49;;;;;;;28.70;23.58;;;;;;;15.40;100.00;101481.41;5085458;28;20050;-72
2023/05/07 07:09:15;;;;;;;30.05;24.13;;;;;;;15.45;100.00;101489.38;5083965;28;20036;-71
2023/05/07 07:11:40;;;;;;;28.88;23.42;;;;;;;15.45;100.00;101490.28;5083840;28;20032;-73
2023/05/07 07:14:05;;;;;;;28.80;23.98;;;;;;;15.49;100.00;101485.81;5085449;28;20039;-72
2023/05/07 07:16:31;;;;;;;28.48;23.15;;;;;;;15.59;100.00;101478.66;5082472;28;20074;-70
2023/05/07 07:18:56;;;;;;;28.52;23.58;;;;;;;15.62;100.00;101479.50;5085887;28;20371;-72
2023/05/07 07:21:21;;;;;;;28.05;22.70;;;;;;;15.67;100.00;101474.16;5082921;28;20175;-72
2023/05/07 07:23:47;;;;;;;28.58;21.90;;;;;;;15.68;100.00;101478.56;5084201;28;20429;-74
2023/05/07 07:26:12;;;;;;;28.25;22.42;;;;;;;15.73;100.00;101487.44;5084203;28;20111;-71
2023/05/07 07:28:45;;;;;;;28.70;22.15;;;;;;;15.81;100.00;101490.06;5083379;28;20028;-71
2023/05/07 07:31:10;;;;;;;27.58;22.10;;;;;;;15.91;100.00;101488.25;5084213;28;20024;-70
2023/05/07 07:33:36;;;;;;;28.20;22.55;;;;;;;16.00;100.00;101494.41;5082636;28;20560;-70
2023/05/07 07:36:01;;;;;;;28.08;22.35;;;;;;;16.26;100.00;101498.59;5085523;28;20475;-72
2023/05/07 07:38:27;;;;;;;29.25;21.77;;;;;;;16.43;100.00;101501.13;5082033;28;20029;-71
2023/05/07 07:40:53;;;;;;;28.58;22.00;;;;;;;16.54;100.00;101501.00;5085093;28;20115;-74
2023/05/07 07:43:18;;;;;;;27.60;20.95;;;;;;;16.68;100.00;101506.22;5083098;28;20056;-71
2023/05/07 07:45:45;;;;;;;27.27;20.98;;;;;;;16.76;100.00;101503.47;5083693;28;20056;-71
2023/05/07 07:48:11;;;;;;;27.08;20.65;;;;;;;16.89;100.00;101513.13;5083910;28;20024;-71
2023/05/07 07:50:36;;;;;;;26.20;19.58;;;;;;;16.99;100.00;101501.44;5082552;28;20117;-70
2023/05/07 07:53:01;;;;;;;26.42;19.38;;;;;;;17.13;100.00;101500.41;5084959;28;20113;-71
2023/05/07 07:55:27;;;;;;;26.23;19.40;;;;;;;17.31;100.00;101489.47;5081943;28;20075;-69
2023/05/07 07:57:52;;;;;;;26.67;19.38;;;;;;;17.41;100.00;101501.78;5077236;28;20556;-75
2023/05/07 08:00:18;;;;;;;25.33;18.65;;;;;;;17.47;100.00;101495.47;5081329;28;20082;-75
2023/05/07 08:02:43;;;;;;;25.55;18.10;;;;;;;17.48;100.00;101497.25;5065331;28;20125;-76
2023/05/07 08:05:08;;;;;;;26.58;18.80;;;;;;;17.59;100.00;101492.66;5082302;28;20029;-75
2023/05/07 08:07:34;;;;;;;25.92;18.80;;;;;;;17.76;100.00;101499.53;5083944;28;20031;-76
2023/05/07 08:09:59;;;;;;;25.15;17.77;;;;;;;17.92;100.00;101492.19;5063258;28;20032;-76
2023/05/07 08:12:25;;;;;;;25.40;18.17;;;;;;;18.21;100.00;101491.69;5084795;28;20486;-76
2023/05/07 08:14:50;;;;;;;26.27;17.90;;;;;;;18.34;100.00;101492.38;5081897;28;20029;-76
2023/05/07 08:17:16;;;;;;;25.38;17.67;;;;;;;18.65;100.00;101494.47;5083762;28;20107;-76
2023/05/07 08:19:42;;;;;;;24.88;17.70;;;;;;;18.90;100.00;101502.06;5082824;28;20024;-76
2023/05/07 08:22:08;;;;;;;24.77;18.02;;;;;;;19.16;100.00;101504.22;5078923;28;20127;-77
2023/05/07 08:24:34;;;;;;;25.50;18.27;;;;;;;19.21;100.00;101501.44;5077725;28;20115;-75
2023/05/07 08:26:59;;;;;;;25.35;17.67;;;;;;;19.34;100.00;101505.63;5072693;28;20028;-74
2023/05/07 08:29:25;;;;;;;25.10;17.45;;;;;;;19.48;100.00;101506.22;5081616;28;20027;-74
2023/05/07 08:31:50;;;;;;;24.27;16.88;;;;;;;19.45;100.00;101511.63;5042218;28;20029;-78
2023/05/07 08:34:15;;;;;;;25.77;18.05;;;;;;;19.59;100.00;101510.44;5058281;28;20106;-78
2023/05/07 08:36:41;;;;;;;25.17;17.35;;;;;;;19.71;100.00;101510.16;5079796;28;20075;-81
2023/05/07 08:39:07;;;;;;;25.23;18.35;;;;;;;19.78;100.00;101508.22;5075751;28;20024;-75
2023/05/07 08:41:32;;;;;;;25.30;18.65;;;;;;;19.81;100.00;101508.19;5066891;28;20035;-78
2023/05/07 08:44:02;;;;;;;26.95;18.25;;;;;;;19.78;100.00;101509.13;5059317;28;20016;-73
2023/05/07 08:46:31;;;;;;;24.40;17.65;;;;;;;19.75;100.00;101503.81;5074542;28;20542;-78
2023/05/07 08:48:56;;;;;;;25.77;17.98;;;;;;;19.89;100.00;101510.66;5075994;28;20020;-74
2023/05/07 08:51:22;;;;;;;26.05;18.75;;;;;;;19.83;100.00;101511.69;5074609;28;20037;-75
2023/05/07 08:53:49;;;;;;;25.83;18.65;;;;;;;19.85;100.00;101508.06;5078732;28;20027;-71
2023/05/07 08:56:16;;;;;;;25.00;17.92;;;;;;;19.87;100.00;101505.34;5076644;28;20470;-73
2023/05/07 08:58:43;;;;;;;25.70;18.27;;;;;;;19.87;100.00;101512.53;5070159;28;20103;-73
2023/05/07 09:01:15;;;;;;;26.77;18.90;;;;;;;20.06;100.00;101519.19;5078952;28;20042;-77
2023/05/07 09:03:43;;;;;;;26.70;18.55;;;;;;;20.28;100.00;101522.22;5068823;28;20090;-76
2023/05/07 09:06:09;;;;;;;25.55;18.35;;;;;;;20.49;100.00;101519.88;5074276;28;20483;-75
2023/05/07 09:08:35;;;;;;;25.15;18.02;;;;;;;20.63;100.00;101520.41;5078159;28;20029;-78
2023/05/07 09:11:01;;;;;;;25.50;17.88;;;;;;;20.37;100.00;101518.41;5077845;28;20074;-79
2023/05/07 09:13:28;;;;;;;25.17;18.25;;;;;;;20.17;100.00;101525.19;5077025;28;20116;-77
2023/05/07 09:15:53;;;;;;;25.00;18.45;;;;;;;20.07;100.00;101520.97;5076896;28;20488;-77
2023/05/07 09:18:18;;;;;;;24.90;18.42;;;;;;;20.07;100.00;101515.59;5078586;28;20082;-77
2023/05/07 09:20:44;;;;;;;24.70;18.33;;;;;;;20.16;100.00;101519.84;5058131;28;20091;-78
2023/05/07 09:23:09;;;;;;;25.35;17.63;;;;;;;20.26;100.00;101520.50;5059772;28;20028;-78
2023/05/07 09:25:36;;;;;;;25.20;18.50;;;;;;;20.29;100.00;101523.13;5075759;28;20035;-81
2023/05/07 09:28:03;;;;;;;24.42;17.92;;;;;;;20.27;100.00;101524.94;5079718;28;20049;-77
2023/05/07 09:30:30;;;;;;;24.90;17.90;;;;;;;20.33;100.00;101522.13;5076901;28;20539;-80
2023/05/07 09:32:56;;;;;;;26.25;18.58;;;;;;;20.15;100.00;101521.66;5075259;28;20048;-81
2023/05/07 09:35:24;;;;;;;25.85;18.15;;;;;;;20.29;100.00;101520.44;5074293;28;20073;-76
2023/05/07 09:37:50;;;;;;;24.13;17.65;;;;;;;20.44;100.00;101529.88;5071854;28;20118;-75
2023/05/07 09:40:30;;;;;;;26.02;18.67;;;;;;;20.65;100.00;101533.78;5078628;28;20033;-76
2023/05/07 09:42:55;;;;;;;24.38;17.40;;;;;;;20.60;100.00;101528.53;5077953;28;20091;-78
2023/05/07 09:45:31;;;;;;;24.67;17.77;;;;;;;20.64;100.00;101534.72;5079408;28;20406;-78
2023/05/07 09:47:58;;;;;;;24.75;18.05;;;;;;;20.84;100.00;101531.53;5075902;28;20025;-77
2023/05/07 09:50:28;;;;;;;23.63;17.13;;;;;;;20.92;100.00;101531.31;5078713;28;20107;-78
2023/05/07 09:52:55;;;;;;;24.85;16.85;;;;;;;21.08;100.00;101532.63;5083700;28;20024;-76
2023/05/07 09:55:21;;;;;;;25.05;17.48;;;;;;;21.29;100.00;101532.94;5080171;28;20108;-76
2023/05/07 09:57:50;;;;;;;24.40;17.08;;;;;;;21.33;100.00;101524.72;5076941;28;20387;-72
2023/05/07 10:00:21;;;;;;;25.55;17.58;;;;;;;21.31;100.00;101523.03;5081611;28;20364;-72
2023/05/07 10:02:49;;;;;;;23.42;16.85;;;;;;;21.35;100.00;101530.97;5083475;28;20432;-73
2023/05/07 10:05:15;;;;;;;24.60;16.88;;;;;;;21.35;100.00;101530.97;5079027;28;20020;-70
2023/05/07 10:07:41;;;;;;;23.48;16.75;;;;;;;21.42;100.00;101527.16;5080395;28;20043;-71
2023/05/07 10:10:07;;;;;;;23.73;16.10;;;;;;;21.43;100.00;101533.41;5071132;28;20031;-75
2023/05/07 10:12:38;;;;;;;24.33;16.42;;;;;;;21.34;100.00;101531.00;5082572;28;20095;-76
2023/05/07 10:15:06;;;;;;;23.23;16.15;;;;;;;21.17;100.00;101527.03;5080797;28;20052;-72
2023/05/07 10:17:32;;;;;;;23.30;16.35;;;;;;;21.32;100.00;101533.75;5078732;28;20024;-75
2023/05/07 10:19:58;;;;;;;22.30;15.13;;;;;;;21.64;100.00;101526.53;5080044;28;20028;-71
2023/05/07 10:22:27;;;;;;;23.95;15.48;;;;;;;21.89;100.00;101523.06;5082115;28;20024;-76
2023/05/07 10:24:54;;;;;;;23.83;15.15;;;;;;;22.03;100.00;101533.38;5079859;28;20538;-73
2023/05/07 10:27:22;;;;;;;22.77;15.32;;;;;;;22.25;89.46;101520.97;5080857;28;20046;-75
2023/05/07 10:30:16;;;;;;;23.30;15.13;;;;;;;22.55;91.89;101531.63;5085952;28;20081;-73
2023/05/07 10:32:51;;;;;;;22.80;14.93;;;;;;;22.92;83.84;101533.03;5079864;28;20048;-75
2023/05/07 10:35:31;;;;;;;23.15;15.00;;;;;;;23.01;80.89;101533.59;5081152;28;20031;-70
2023/05/07 10:37:57;;;;;;;23.02;14.38;;;;;;;23.41;79.81;101529.44;5084538;28;20065;-75
2023/05/07 10:40:22;;;;;;;23.10;15.25;;;;;;;23.58;76.89;101528.81;5085105;28;20032;-67
2023/05/07 10:43:01;;;;;;;23.85;15.65;;;;;;;23.48;79.48;101528.28;5085637;28;20029;-68
2023/05/07 10:45:27;;;;;;;23.10;15.02;;;;;;;23.58;77.21;101532.38;5085101;28;20388;-70
2023/05/07 10:48:08;;;;;;;23.27;14.77;;;;;;;23.80;76.84;101524.28;5085044;28;20111;-75
2023/05/07 10:50:35;;;;;;;22.97;15.33;;;;;;;24.26;71.75;101532.34;5086288;28;20048;-65
2023/05/07 10:53:18;;;;;;;23.27;15.55;;;;;;;24.50;72.61;101534.94;5083747;28;20020;-68
2023/05/07 10:55:48;;;;;;;22.25;13.65;;;;;;;24.61;69.17;101534.50;5080013;28;20027;-71
2023/05/07 10:58:27;;;;;;;22.15;13.02;;;;;;;24.64;66.42;101531.66;5085033;28;20051;-70